createdAt,value
2023-05-15T00:00:58.353Z,16.03
2023-05-15T00:03:40.694Z,16.04
2023-05-15T00:06:38.854Z,16.02
2023-05-15T00:09:30.481Z,15.99
2023-05-15T00:12:24.107Z,15.95
2023-05-15T00:14:59.828Z,15.92
2023-05-15T00:17:30.451Z,15.89
2023-05-15T00:20:00.767Z,15.80
2023-05-15T00:22:33.294Z,15.83
2023-05-15T00:25:15.944Z,15.84
2023-05-15T00:27:54.735Z,15.72
2023-05-15T00:30:33.797Z,15.62
2023-05-15T00:33:20.841Z,15.56
2023-05-15T00:36:20.408Z,15.56
2023-05-15T00:39:01.264Z,15.58
2023-05-15T00:41:52.613Z,15.54
2023-05-15T00:44:50.968Z,15.43
2023-05-15T00:47:37.376Z,15.31
2023-05-15T00:50:20.627Z,15.30
2023-05-15T00:53:03.465Z,15.32
2023-05-15T00:55:48.034Z,15.31
2023-05-15T00:58:32.956Z,15.23
2023-05-15T01:01:26.231Z,15.13
2023-05-15T01:04:12.934Z,15.06
2023-05-15T01:06:51.794Z,14.97
2023-05-15T01:09:39.365Z,14.90
2023-05-15T01:12:17.842Z,14.89
2023-05-15T01:14:57.319Z,14.89
2023-05-15T01:17:34.206Z,14.90
2023-05-15T01:20:23.245Z,14.90
2023-05-15T01:23:23.230Z,14.91
2023-05-15T01:26:53.940Z,14.93
2023-05-15T01:29:48.425Z,14.92
2023-05-15T01:32:38.095Z,14.93
2023-05-15T01:35:27.716Z,14.92
2023-05-15T01:38:23.431Z,14.92
2023-05-15T01:41:09.590Z,14.93
2023-05-15T01:44:07.984Z,14.94
2023-05-15T01:47:08.892Z,14.92
2023-05-15T01:49:48.486Z,14.91
2023-05-15T01:52:35.430Z,14.93
2023-05-15T01:55:07.562Z,14.92
2023-05-15T01:57:38.696Z,14.92
2023-05-15T02:00:13.638Z,14.92
2023-05-15T02:02:51.798Z,14.92
2023-05-15T02:05:39.948Z,14.87
2023-05-15T02:08:17.880Z,14.85
2023-05-15T02:11:13.358Z,14.80
2023-05-15T02:13:56.654Z,14.78
2023-05-15T02:16:41.730Z,14.77
2023-05-15T02:19:38.034Z,14.74
2023-05-15T02:22:15.348Z,14.74
2023-05-15T02:24:50.314Z,14.74
2023-05-15T02:27:53.295Z,14.71
2023-05-15T02:30:59.969Z,14.65
2023-05-15T02:33:59.783Z,14.62
2023-05-15T02:36:48.302Z,14.60
2023-05-15T02:39:36.347Z,14.60
2023-05-15T02:42:19.798Z,14.59
2023-05-15T02:45:07.273Z,14.56
2023-05-15T02:47:51.213Z,14.53
2023-05-15T02:50:35.422Z,14.53
2023-05-15T02:53:27.673Z,14.53
2023-05-15T02:56:09.911Z,14.51
2023-05-15T02:59:11.825Z,14.44
2023-05-15T03:01:47.519Z,14.36
2023-05-15T03:04:39.044Z,14.32
2023-05-15T03:07:39.089Z,14.26
2023-05-15T03:10:35.117Z,14.16
2023-05-15T03:13:22.061Z,14.11
2023-05-15T03:16:05.224Z,14.06
2023-05-15T03:18:45.659Z,14.01
2023-05-15T03:21:25.703Z,13.96
2023-05-15T03:24:04.473Z,13.90
2023-05-15T03:26:54.935Z,13.83
2023-05-15T03:29:36.912Z,13.81
2023-05-15T03:32:13.779Z,13.81
2023-05-15T03:34:49.553Z,13.78
2023-05-15T03:37:31.047Z,13.70
2023-05-15T03:40:23.828Z,13.67
2023-05-15T03:43:08.171Z,13.65
2023-05-15T03:45:44.313Z,13.64
2023-05-15T03:48:31.898Z,13.64
2023-05-15T03:51:12.839Z,13.62
2023-05-15T03:54:07.801Z,13.58
2023-05-15T03:56:48.087Z,13.56
2023-05-15T03:59:24.378Z,13.57
2023-05-15T04:02:05.823Z,13.56
2023-05-15T04:04:45.222Z,13.50
2023-05-15T04:07:18.383Z,13.43
2023-05-15T04:09:51.603Z,13.35
2023-05-15T04:12:24.235Z,13.31
2023-05-15T04:15:07.249Z,13.28
2023-05-15T04:17:54.002Z,13.23
2023-05-15T04:20:29.281Z,13.23
2023-05-15T04:23:06.454Z,13.21
2023-05-15T04:25:54.868Z,13.20
2023-05-15T04:29:00.288Z,13.14
2023-05-15T04:32:37.369Z,13.08
2023-05-15T04:35:11.200Z,13.05
2023-05-15T04:37:47.831Z,13.05
2023-05-15T04:40:25.992Z,13.04
2023-05-15T04:43:12.680Z,13.00
2023-05-15T04:45:58.995Z,12.96
2023-05-15T04:48:47.075Z,12.92
2023-05-15T04:56:37.648Z,12.78
2023-05-15T04:59:07.406Z,12.77
2023-05-15T05:01:37.730Z,12.79
2023-05-15T05:04:08.929Z,12.80
2023-05-15T05:06:54.372Z,12.66
2023-05-15T05:09:34.139Z,12.66
2023-05-15T05:12:09.953Z,12.67
2023-05-15T05:14:43.413Z,12.66
2023-05-15T05:17:13.214Z,12.67
2023-05-15T05:19:43.071Z,12.67
2023-05-15T05:22:13.023Z,12.67
2023-05-15T05:24:45.817Z,12.66
2023-05-15T05:27:23.109Z,12.65
2023-05-15T05:30:04.063Z,12.65
2023-05-15T05:32:40.519Z,12.65
2023-05-15T05:35:15.502Z,12.64
2023-05-15T05:38:03.534Z,12.61
2023-05-15T05:40:45.793Z,12.60
2023-05-15T05:43:20.948Z,12.60
2023-05-15T05:46:07.733Z,12.61
2023-05-15T05:48:56.346Z,12.60
2023-05-15T05:51:38.548Z,12.59
2023-05-15T05:54:44.960Z,12.56
2023-05-15T05:57:19.233Z,12.55
2023-05-15T05:59:52.285Z,12.55
2023-05-15T06:02:35.302Z,12.54
2023-05-15T06:05:15.983Z,12.55
2023-05-15T06:08:18.140Z,12.58
2023-05-15T06:11:24.417Z,12.57
2023-05-15T06:14:25.644Z,12.59
2023-05-15T06:17:06.510Z,12.62
2023-05-15T06:19:55.465Z,12.65
2023-05-15T06:22:32.714Z,12.68
2023-05-15T06:25:22.763Z,12.70
2023-05-15T06:28:08.309Z,12.74
2023-05-15T06:30:51.751Z,12.79
2023-05-15T06:33:26.837Z,12.82
2023-05-15T06:36:16.748Z,12.85
2023-05-15T06:39:04.315Z,12.86
2023-05-15T06:42:00.480Z,12.90
2023-05-15T06:44:38.813Z,12.94
2023-05-15T06:47:27.295Z,12.97
2023-05-15T06:50:17.340Z,12.99
2023-05-15T06:53:13.081Z,13.00
2023-05-15T06:55:53.281Z,13.01
2023-05-15T06:58:33.128Z,13.03
2023-05-15T07:01:29.248Z,13.06
2023-05-15T07:04:17.178Z,13.03
2023-05-15T07:06:54.681Z,13.04
2023-05-15T07:12:24.951Z,13.05
2023-05-15T07:14:54.893Z,13.09
2023-05-15T07:17:30.812Z,13.16
2023-05-15T07:20:12.376Z,13.20
2023-05-15T07:22:56.462Z,13.19
2023-05-15T07:25:30.464Z,13.19
2023-05-15T07:28:00.802Z,13.19
2023-05-15T07:30:32.331Z,13.21
2023-05-15T07:33:02.362Z,13.20
2023-05-15T07:35:32.218Z,13.09
2023-05-15T07:38:04.775Z,13.07
2023-05-15T07:40:35.001Z,13.08
2023-05-15T07:43:07.743Z,13.10
2023-05-15T07:45:37.579Z,13.13
2023-05-15T07:48:23.468Z,13.17
2023-05-15T07:50:54.037Z,13.19
2023-05-15T07:53:23.524Z,13.21
2023-05-15T07:55:53.709Z,13.27
2023-05-15T07:58:23.661Z,13.29
2023-05-15T08:00:56.116Z,13.32
2023-05-15T08:03:26.615Z,13.33
2023-05-15T08:06:00.048Z,13.34
2023-05-15T08:08:30.273Z,13.38
2023-05-15T08:11:03.481Z,13.39
2023-05-15T08:13:33.703Z,13.43
2023-05-15T08:16:07.837Z,13.51
2023-05-15T08:18:37.929Z,13.56
2023-05-15T08:21:08.485Z,13.56
2023-05-15T08:23:38.588Z,13.56
2023-05-15T08:26:11.503Z,13.59
2023-05-15T08:28:43.802Z,13.63
2023-05-15T08:31:14.230Z,13.69
2023-05-15T08:33:45.769Z,13.73
2023-05-15T08:36:20.278Z,13.78
2023-05-15T08:38:50.793Z,13.84
2023-05-15T08:41:40.464Z,13.88
2023-05-15T08:44:13.726Z,13.92
2023-05-15T08:46:44.318Z,13.94
2023-05-15T08:49:57.367Z,13.92
2023-05-15T08:52:31.530Z,13.89
2023-05-15T08:55:06.146Z,13.91
2023-05-15T08:57:37.276Z,13.98
2023-05-15T09:00:15.099Z,14.03
2023-05-15T09:02:45.980Z,14.05
2023-05-15T09:05:17.208Z,14.09
2023-05-15T09:07:48.590Z,14.14
2023-05-15T09:10:20.514Z,14.17
2023-05-15T09:12:53.932Z,14.22
2023-05-15T09:15:26.650Z,14.29
2023-05-15T09:18:00.464Z,14.47
2023-05-15T09:20:35.698Z,14.47
2023-05-15T09:23:26.020Z,14.53
2023-05-15T09:25:59.150Z,14.60
2023-05-15T09:28:35.467Z,14.66
2023-05-15T09:31:20.883Z,14.72
2023-05-15T09:34:02.449Z,14.80
2023-05-15T09:36:33.470Z,14.87
2023-05-15T09:39:10.110Z,14.93
2023-05-15T09:41:49.459Z,14.95
2023-05-15T09:44:28.021Z,15.01
2023-05-15T09:46:59.369Z,15.08
2023-05-15T09:49:44.061Z,15.17
2023-05-15T09:52:16.839Z,15.26
2023-05-15T09:54:57.864Z,15.33
2023-05-15T09:57:31.531Z,15.46
2023-05-15T10:00:13.565Z,15.51
2023-05-15T10:02:44.219Z,15.56
2023-05-15T10:05:17.847Z,15.68
2023-05-15T10:07:59.734Z,15.77
2023-05-15T10:10:33.802Z,15.81
2023-05-15T10:13:06.581Z,15.83
2023-05-15T10:15:37.823Z,15.91
2023-05-15T10:18:09.384Z,16.05
2023-05-15T10:20:39.305Z,16.04
2023-05-15T10:23:16.801Z,15.81
2023-05-15T10:26:41.357Z,15.69
2023-05-15T10:29:18.030Z,15.54
2023-05-15T10:31:52.443Z,15.52
2023-05-15T10:34:27.722Z,15.50
2023-05-15T10:37:02.938Z,15.45
2023-05-15T10:39:42.210Z,15.37
2023-05-15T10:42:14.219Z,15.40
2023-05-15T10:44:45.205Z,15.45
2023-05-15T10:47:19.095Z,15.49
2023-05-15T10:49:56.739Z,15.53
2023-05-15T10:52:31.178Z,15.54
2023-05-15T10:55:01.976Z,15.60
2023-05-15T10:57:33.503Z,15.59
2023-05-15T11:00:37.304Z,15.65
2023-05-15T11:03:08.556Z,15.69
2023-05-15T11:06:16.705Z,15.78
2023-05-15T11:08:47.815Z,15.92
2023-05-15T11:11:52.230Z,16.02
2023-05-15T11:14:30.111Z,15.99
2023-05-15T11:17:07.190Z,15.87
2023-05-15T11:19:59.229Z,15.83
2023-05-15T11:22:41.081Z,15.84
2023-05-15T11:25:21.094Z,15.83
2023-05-15T11:27:59.202Z,15.79
2023-05-15T11:30:45.609Z,15.72
2023-05-15T11:33:27.546Z,15.63
2023-05-15T11:36:05.805Z,15.54
2023-05-15T11:38:40.852Z,15.45
2023-05-15T11:41:20.659Z,15.35
2023-05-15T11:43:52.922Z,15.28
2023-05-15T11:46:26.918Z,15.14
2023-05-15T11:49:01.579Z,15.13
2023-05-15T11:51:33.033Z,15.17
2023-05-15T11:54:08.052Z,15.23
2023-05-15T11:56:47.872Z,15.23
2023-05-15T11:59:19.422Z,15.23
2023-05-15T12:02:00.122Z,15.31
2023-05-15T12:04:38.952Z,15.28
2023-05-15T12:07:13.426Z,15.42
2023-05-15T12:09:45.732Z,15.59
2023-05-15T12:12:29.056Z,15.70
2023-05-15T12:15:01.229Z,15.81
2023-05-15T12:17:33.551Z,15.97
2023-05-15T12:20:05.102Z,16.08
2023-05-15T12:22:41.184Z,16.12
2023-05-15T12:25:16.678Z,16.15
2023-05-15T12:27:49.551Z,16.25
2023-05-15T12:30:20.989Z,16.35
2023-05-15T12:32:52.273Z,16.36
2023-05-15T12:35:25.651Z,16.34
2023-05-15T12:38:01.797Z,16.26
2023-05-15T12:40:35.506Z,16.18
2023-05-15T12:43:09.736Z,16.27
2023-05-15T12:45:43.023Z,16.22
2023-05-15T12:48:16.974Z,16.24
2023-05-15T12:50:58.207Z,16.40
2023-05-15T12:53:34.500Z,16.50
2023-05-15T12:56:05.043Z,16.50
2023-05-15T12:58:37.659Z,16.48
2023-05-15T13:01:07.983Z,16.43
2023-05-15T13:03:44.645Z,16.43
2023-05-15T13:06:17.054Z,16.48
2023-05-15T13:08:48.358Z,16.60
2023-05-15T13:11:18.585Z,16.65
2023-05-15T13:13:53.548Z,16.73
2023-05-15T13:16:33.255Z,16.88
2023-05-15T13:19:18.060Z,16.98
2023-05-15T13:21:54.693Z,17.24
2023-05-15T13:24:33.073Z,17.41
2023-05-15T13:27:03.932Z,17.60
2023-05-15T13:29:36.743Z,17.72
2023-05-15T13:32:08.030Z,17.79
2023-05-15T13:34:38.196Z,17.90
2023-05-15T13:37:14.163Z,17.91
2023-05-15T13:39:44.639Z,17.91
2023-05-15T13:42:14.917Z,17.92
2023-05-15T13:44:45.306Z,17.86
2023-05-15T13:47:15.631Z,17.76
2023-05-15T13:49:46.723Z,17.66
2023-05-15T13:52:17.178Z,17.54
2023-05-15T13:54:48.283Z,17.40
2023-05-15T13:57:21.444Z,17.25
2023-05-15T13:59:52.558Z,17.07
2023-05-15T14:02:33.769Z,16.89
2023-05-15T14:05:18.571Z,16.69
2023-05-15T14:07:51.549Z,16.50
2023-05-15T14:10:24.458Z,16.26
2023-05-15T14:12:56.071Z,16.08
2023-05-15T14:15:30.513Z,15.99
2023-05-15T14:18:06.125Z,15.95
2023-05-15T14:20:48.101Z,15.91
2023-05-15T14:23:26.916Z,15.81
2023-05-15T14:25:57.404Z,15.72
2023-05-15T14:28:27.917Z,15.71
2023-05-15T14:30:58.625Z,15.72
2023-05-15T14:33:29.549Z,15.66
2023-05-15T14:36:05.433Z,15.63
2023-05-15T14:38:43.011Z,15.59
2023-05-15T14:41:33.691Z,15.50
2023-05-15T14:44:11.581Z,15.47
2023-05-15T14:46:43.720Z,15.45
2023-05-15T14:49:14.428Z,15.48
2023-05-15T14:51:47.794Z,15.54
2023-05-15T14:54:17.432Z,15.60
2023-05-15T14:56:51.603Z,15.69
2023-05-15T14:59:22.377Z,15.79
2023-05-15T15:01:52.726Z,15.85
2023-05-15T15:04:23.037Z,15.92
2023-05-15T15:06:59.480Z,15.93
2023-05-15T15:09:29.342Z,15.90
2023-05-15T15:11:59.213Z,15.85
2023-05-15T15:14:29.048Z,15.77
2023-05-15T15:17:17.694Z,15.71
2023-05-15T15:19:47.368Z,15.65
2023-05-15T15:22:17.021Z,15.57
2023-05-15T15:24:49.481Z,15.48
2023-05-15T15:27:18.975Z,15.36
2023-05-15T15:29:48.354Z,15.28
2023-05-15T15:32:20.843Z,15.23
2023-05-15T15:34:50.933Z,15.21
2023-05-15T15:37:20.501Z,15.14
2023-05-15T15:39:50.077Z,15.05
2023-05-15T15:42:19.733Z,15.01
2023-05-15T15:44:49.869Z,15.05
2023-05-15T15:47:20.426Z,15.16
2023-05-15T15:49:53.732Z,15.26
2023-05-15T15:52:23.871Z,15.30
2023-05-15T15:54:53.436Z,15.33
2023-05-15T15:57:22.795Z,15.30
2023-05-15T15:59:52.247Z,15.27
2023-05-15T16:02:24.635Z,15.22
2023-05-15T16:04:54.108Z,15.16
2023-05-15T16:07:23.753Z,15.15
2023-05-15T16:10:00.280Z,15.18
2023-05-15T16:12:43.024Z,15.16
2023-05-15T16:15:23.255Z,15.15
2023-05-15T16:17:54.926Z,15.12
2023-05-15T16:20:25.172Z,15.06
2023-05-15T16:22:54.842Z,14.99
2023-05-15T16:25:23.967Z,15.00
2023-05-15T16:27:56.661Z,15.08
2023-05-15T16:30:33.651Z,15.17
2023-05-15T16:33:14.469Z,15.24
2023-05-15T16:35:45.186Z,15.29
2023-05-15T16:38:15.966Z,15.36
2023-05-15T16:40:47.098Z,15.40
2023-05-15T16:43:17.178Z,15.43
2023-05-15T16:45:46.509Z,15.39
2023-05-15T16:48:15.874Z,15.42
2023-05-15T16:50:45.316Z,15.48
2023-05-15T16:53:15.610Z,15.51
2023-05-15T16:55:47.213Z,15.51
2023-05-15T16:58:17.388Z,15.51
2023-05-15T17:00:47.615Z,15.45
2023-05-15T17:03:19.080Z,15.41
2023-05-15T17:05:49.031Z,15.38
2023-05-15T17:08:19.438Z,15.19
2023-05-15T17:10:49.627Z,15.12
2023-05-15T17:13:19.060Z,15.09
2023-05-15T17:15:50.527Z,15.05
2023-05-15T17:18:20.312Z,15.03
2023-05-15T17:20:49.685Z,14.90
2023-05-15T17:23:21.721Z,14.86
2023-05-15T17:25:52.729Z,14.82
2023-05-15T17:28:22.636Z,14.77
2023-05-15T17:30:52.398Z,14.73
2023-05-15T17:33:21.849Z,14.71
2023-05-15T17:35:52.546Z,14.71
2023-05-15T17:38:22.009Z,14.69
2023-05-15T17:40:51.746Z,14.65
2023-05-15T17:43:24.337Z,14.62
2023-05-15T17:45:57.943Z,14.62
2023-05-15T17:48:30.905Z,14.55
2023-05-15T17:51:05.545Z,14.49
2023-05-15T17:53:34.868Z,14.47
2023-05-15T17:56:04.683Z,14.47
2023-05-15T17:58:38.334Z,14.47
2023-05-15T18:01:08.133Z,14.44
2023-05-15T18:03:43.769Z,14.39
2023-05-15T18:07:28.987Z,14.38
2023-05-15T18:09:59.774Z,14.33
2023-05-15T18:12:29.432Z,14.34
2023-05-15T18:14:59.170Z,14.36
2023-05-15T18:17:29.601Z,14.37
2023-05-15T18:20:02.050Z,14.36
2023-05-15T18:22:32.222Z,14.33
2023-05-15T18:25:02.921Z,14.31
2023-05-15T18:27:34.300Z,14.28
2023-05-15T18:30:05.048Z,14.25
2023-05-15T18:32:36.593Z,14.24
2023-05-15T18:35:07.085Z,14.24
2023-05-15T18:37:54.075Z,14.22
2023-05-15T18:40:27.068Z,14.20
2023-05-15T18:43:02.490Z,14.18
2023-05-15T18:45:34.067Z,14.15
2023-05-15T18:48:07.426Z,14.11
2023-05-15T18:50:41.521Z,14.07
2023-05-15T18:53:11.922Z,14.01
2023-05-15T18:55:51.642Z,13.96
2023-05-15T18:58:33.254Z,13.92
2023-05-15T19:01:04.174Z,13.88
2023-05-15T19:03:37.511Z,13.79
2023-05-15T19:06:10.868Z,13.78
2023-05-15T19:09:01.341Z,13.79
2023-05-15T19:12:05.993Z,13.76
2023-05-15T19:14:49.624Z,13.73
2023-05-15T19:17:20.634Z,13.71
2023-05-15T19:19:52.595Z,13.69
2023-05-15T19:22:23.855Z,13.68
2023-05-15T19:24:54.040Z,13.63
2023-05-15T19:27:24.083Z,13.62
2023-05-15T19:29:54.485Z,13.62
2023-05-15T19:32:33.040Z,13.63
2023-05-15T19:35:04.874Z,13.62
2023-05-15T19:37:35.400Z,13.64
2023-05-15T19:40:12.756Z,13.56
2023-05-15T19:42:42.937Z,13.61
2023-05-15T19:45:18.513Z,13.62
2023-05-15T19:47:53.684Z,13.63
2023-05-15T19:50:24.290Z,13.66
2023-05-15T19:52:56.943Z,13.67
2023-05-15T19:55:37.378Z,13.69
2023-05-15T19:58:11.220Z,13.71
2023-05-15T20:00:41.927Z,13.71
2023-05-15T20:03:18.507Z,13.68
2023-05-15T20:05:51.531Z,13.67
2023-05-15T20:08:22.726Z,13.65
2023-05-15T20:10:54.851Z,13.65
2023-05-15T20:13:25.277Z,13.65
2023-05-15T20:15:59.071Z,13.63
2023-05-15T20:18:35.081Z,13.62
2023-05-15T20:21:07.994Z,13.61
2023-05-15T20:23:40.097Z,13.57
2023-05-15T20:26:13.175Z,13.56
2023-05-15T20:28:46.556Z,13.52
2023-05-15T20:31:27.325Z,13.48
2023-05-15T20:34:00.415Z,13.45
2023-05-15T20:36:32.760Z,13.44
2023-05-15T20:39:07.547Z,13.47
2023-05-15T20:41:37.767Z,13.43
2023-05-15T20:44:07.551Z,13.44
2023-05-15T20:46:40.206Z,13.44
2023-05-15T20:49:10.286Z,13.42
2023-05-15T20:51:48.977Z,13.41
2023-05-15T20:54:22.872Z,13.42
2023-05-15T20:56:56.281Z,13.42
2023-05-15T20:59:29.073Z,13.40
2023-05-15T21:02:05.418Z,13.38
2023-05-15T21:04:37.918Z,13.39
2023-05-15T21:07:13.112Z,13.39
2023-05-15T21:09:51.953Z,13.41
2023-05-15T21:12:35.209Z,13.41
2023-05-15T21:15:20.716Z,13.36
2023-05-15T21:17:50.613Z,13.36
2023-05-15T21:24:08.555Z,13.28
2023-05-15T21:27:29.019Z,13.21
2023-05-15T21:30:00.986Z,13.19
2023-05-15T21:32:37.971Z,13.16
2023-05-15T21:35:21.541Z,13.13
2023-05-15T21:37:58.587Z,13.09
2023-05-15T21:40:36.948Z,13.07
2023-05-15T21:43:11.497Z,13.03
2023-05-15T21:45:44.186Z,13.00
2023-05-15T21:48:16.735Z,12.98
2023-05-15T21:50:54.501Z,12.97
2023-05-15T21:53:28.968Z,12.90
2023-05-15T21:56:07.192Z,12.84
2023-05-15T21:58:41.514Z,12.78
2023-05-15T22:01:11.635Z,12.73
2023-05-15T22:03:41.551Z,12.70
2023-05-15T22:06:12.320Z,12.65
2023-05-15T22:08:42.195Z,12.62
2023-05-15T22:11:34.750Z,12.59
2023-05-15T22:14:11.909Z,12.56
2023-05-15T22:17:07.486Z,12.52
2023-05-15T22:19:38.058Z,12.50
2023-05-15T22:22:10.139Z,12.49
2023-05-15T22:24:40.293Z,12.45
2023-05-15T22:27:10.214Z,12.42
2023-05-15T22:29:39.978Z,12.40
2023-05-15T22:32:09.696Z,12.37
2023-05-15T22:34:45.794Z,12.36
2023-05-15T22:37:16.563Z,12.30
2023-05-15T22:39:48.204Z,12.27
2023-05-15T22:42:19.584Z,12.22
2023-05-15T22:44:55.280Z,12.18
2023-05-15T22:47:31.494Z,12.12
2023-05-15T22:50:01.691Z,12.07
2023-05-15T22:52:31.450Z,12.08
2023-05-15T22:55:00.862Z,12.10
2023-05-15T22:57:30.481Z,12.12
2023-05-15T23:00:01.240Z,12.11
2023-05-15T23:02:31.417Z,12.11
2023-05-15T23:05:05.804Z,12.09
2023-05-15T23:07:35.821Z,12.12
2023-05-15T23:10:06.040Z,12.12
2023-05-15T23:12:38.430Z,12.11
2023-05-15T23:15:14.020Z,12.12
2023-05-15T23:17:51.626Z,12.11
2023-05-15T23:20:22.919Z,12.11
2023-05-15T23:22:58.562Z,12.10
2023-05-15T23:25:28.577Z,12.06
2023-05-15T23:28:03.629Z,12.01
2023-05-15T23:30:35.580Z,11.97
2023-05-15T23:33:05.700Z,11.95
2023-05-15T23:35:35.582Z,11.96
2023-05-15T23:38:05.816Z,11.97
2023-05-15T23:40:36.312Z,11.98
2023-05-15T23:43:09.725Z,12.00
2023-05-15T23:45:39.541Z,12.05
2023-05-15T23:48:10.229Z,12.10
2023-05-15T23:50:40.494Z,12.15
2023-05-15T23:53:12.896Z,12.17
2023-05-15T23:55:42.557Z,12.21
2023-05-15T23:58:13.835Z,12.24
